Terminal Aerodrome Forecast
Issued by NWS Tampa Bay Area, FL

Home | Current Version | Previous Version | Text Only | Print | Product List | Glossary On
Versions: 1 2 3 4 5 6 7 8 9 10 11 12 13 14 15 16 17 18 19 20 21 22 23
000
FTUS42 KTBW 291100 AAA
TAFTPA
TAF AMD
KTPA 291157Z 2912/3012 VRB04KT P6SM SCT007 SCT030
      TEMPO 2912/2914 5SM BR
     FM291500 19007KT P6SM BKN025 BKN250
     FM291900 20007KT P6SM BKN050 BKN250
     FM300100 VRB06KT 6SM BR FEW010 SCT025 BKN050=

USA.gov is the U.S. government's official web portal to all federal, state and local government web resources and services.